createdAt,value
2022-10-21T00:01:59.678Z,18.83
2022-10-21T00:04:27.176Z,21.90
2022-10-21T00:06:54.708Z,23.10
2022-10-21T00:09:22.179Z,20.30
2022-10-21T00:11:49.676Z,19.10
2022-10-21T00:14:19.887Z,20.67
2022-10-21T00:16:47.404Z,19.10
2022-10-21T00:19:14.952Z,23.53
2022-10-21T00:21:42.443Z,20.90
2022-10-21T00:24:09.922Z,19.13
2022-10-21T00:26:38.512Z,18.03
2022-10-21T00:29:06.202Z,18.20
2022-10-21T00:31:35.019Z,21.67
2022-10-21T00:34:02.496Z,21.10
2022-10-21T00:36:31.774Z,19.30
2022-10-21T00:38:59.225Z,22.43
2022-10-21T00:41:26.679Z,18.73
2022-10-21T00:43:59.844Z,20.17
2022-10-21T00:46:33.773Z,19.50
2022-10-21T00:49:06.015Z,19.87
2022-10-21T00:51:33.811Z,17.00
2022-10-21T00:54:02.167Z,18.30
2022-10-21T00:56:32.263Z,18.57
2022-10-21T00:59:01.988Z,19.60
2022-10-21T01:01:29.510Z,18.10
2022-10-21T01:03:57.043Z,17.70
2022-10-21T01:06:26.921Z,17.40
2022-10-21T01:08:55.524Z,20.97
2022-10-21T01:11:24.389Z,19.73
2022-10-21T01:14:09.056Z,18.47
2022-10-21T01:16:47.248Z,19.53
2022-10-21T01:19:38.392Z,23.40
2022-10-21T01:22:12.678Z,19.07
2022-10-21T01:24:50.054Z,19.40
2022-10-21T01:27:22.886Z,18.70
2022-10-21T01:30:07.196Z,23.00
2022-10-21T01:32:56.203Z,23.10
2022-10-21T01:35:25.621Z,19.90
2022-10-21T01:37:58.729Z,18.40
2022-10-21T01:40:28.180Z,19.03
2022-10-21T01:42:58.166Z,17.03
2022-10-21T01:45:31.619Z,20.17
2022-10-21T01:48:03.817Z,22.50
2022-10-21T01:50:34.637Z,20.10
2022-10-21T01:53:09.943Z,20.50
2022-10-21T01:55:38.607Z,16.90
2022-10-21T01:58:08.114Z,21.57
2022-10-21T02:00:36.657Z,18.40
2022-10-21T02:03:08.595Z,17.80
2022-10-21T02:05:36.341Z,18.60
2022-10-21T02:08:04.004Z,15.77
2022-10-21T02:10:34.972Z,16.00
2022-10-21T02:13:04.726Z,22.03
2022-10-21T02:15:34.153Z,16.17
2022-10-21T02:18:05.236Z,15.80
2022-10-21T02:20:36.592Z,17.80
2022-10-21T02:23:05.079Z,15.37
2022-10-21T02:25:34.589Z,17.63
2022-10-21T02:28:02.200Z,17.20
2022-10-21T02:30:35.613Z,18.57
2022-10-21T02:33:08.026Z,19.30
2022-10-21T02:35:42.506Z,26.50
2022-10-21T02:38:15.404Z,19.57
2022-10-21T02:40:45.722Z,15.87
2022-10-21T02:43:15.279Z,16.70
2022-10-21T02:45:42.904Z,19.80
2022-10-21T02:48:10.372Z,19.67
2022-10-21T02:50:39.202Z,18.67
2022-10-21T02:53:07.162Z,18.60
2022-10-21T02:55:34.674Z,20.40
2022-10-21T02:58:02.139Z,26.83
2022-10-21T03:00:32.733Z,17.67
2022-10-21T03:03:00.661Z,21.70
2022-10-21T03:05:28.271Z,21.30
2022-10-21T03:07:57.135Z,21.80
2022-10-21T03:10:24.633Z,22.40
2022-10-21T03:12:52.169Z,17.33
2022-10-21T03:15:19.596Z,18.67
2022-10-21T03:17:47.613Z,18.47
2022-10-21T03:20:15.238Z,19.07
2022-10-21T03:22:43.960Z,22.97
2022-10-21T03:25:13.220Z,21.73
2022-10-21T03:27:40.958Z,25.33
2022-10-21T03:30:10.077Z,18.57
2022-10-21T03:32:37.892Z,18.23
2022-10-21T03:35:06.366Z,20.37
2022-10-21T03:37:33.883Z,16.27
2022-10-21T03:40:01.318Z,18.70
2022-10-21T03:42:30.161Z,23.60
2022-10-21T03:44:57.625Z,18.43
2022-10-21T03:47:25.309Z,19.90
2022-10-21T03:49:52.919Z,32.90
2022-10-21T03:52:20.422Z,20.97
2022-10-21T03:54:47.933Z,19.37
2022-10-21T03:57:16.214Z,20.33
2022-10-21T03:59:45.027Z,17.03
2022-10-21T04:02:12.540Z,16.83
2022-10-21T04:04:40.023Z,18.17
2022-10-21T04:07:07.544Z,16.60
2022-10-21T04:09:35.009Z,18.33
2022-10-21T04:12:02.492Z,17.77
2022-10-21T04:14:29.999Z,17.20
2022-10-21T04:17:06.816Z,20.37
2022-10-21T04:19:34.494Z,13.37
2022-10-21T04:22:01.961Z,16.20
2022-10-21T04:24:29.437Z,16.40
2022-10-21T04:26:56.950Z,17.30
2022-10-21T04:29:24.423Z,18.43
2022-10-21T04:31:52.026Z,18.00
2022-10-21T04:34:20.865Z,16.93
2022-10-21T04:36:48.380Z,22.03
2022-10-21T04:39:15.988Z,15.43
2022-10-21T04:41:44.462Z,14.33
2022-10-21T04:44:12.228Z,20.20
2022-10-21T04:46:39.704Z,17.47
2022-10-21T04:49:07.256Z,19.37
2022-10-21T04:51:36.089Z,23.07
2022-10-21T04:54:03.584Z,22.57
2022-10-21T04:56:31.361Z,30.00
2022-10-21T04:58:58.824Z,22.10
2022-10-21T05:01:26.390Z,27.80
2022-10-21T05:03:53.957Z,22.30
2022-10-21T05:06:21.460Z,23.03
2022-10-21T05:08:50.347Z,18.03
2022-10-21T05:11:17.820Z,25.33
2022-10-21T05:13:46.503Z,17.77
2022-10-21T05:16:13.998Z,21.60
2022-10-21T05:18:41.445Z,21.43
2022-10-21T05:21:09.112Z,20.30
2022-10-21T05:23:36.593Z,18.37
2022-10-21T05:26:05.663Z,23.00
2022-10-21T05:28:33.141Z,21.60
2022-10-21T05:31:00.649Z,20.27
2022-10-21T05:33:28.415Z,21.30
2022-10-21T05:35:57.511Z,18.53
2022-10-21T05:38:25.050Z,21.57
2022-10-21T05:40:53.173Z,23.60
2022-10-21T05:43:22.025Z,16.47
2022-10-21T05:45:49.504Z,18.97
2022-10-21T05:48:18.200Z,17.40
2022-10-21T05:50:46.112Z,21.33
2022-10-21T05:53:14.004Z,18.30
2022-10-21T05:55:41.480Z,15.67
2022-10-21T05:58:09.012Z,17.50
2022-10-21T06:00:37.884Z,19.20
2022-10-21T06:03:05.387Z,18.23
2022-10-21T06:05:32.894Z,19.77
2022-10-21T06:08:00.324Z,19.70
2022-10-21T06:10:29.170Z,18.80
2022-10-21T06:12:56.829Z,16.67
2022-10-21T06:15:24.359Z,14.20
2022-10-21T06:17:53.638Z,18.50
2022-10-21T06:20:21.122Z,18.73
2022-10-21T06:22:48.648Z,16.77
2022-10-21T06:27:44.768Z,19.97
2022-10-21T06:30:12.248Z,18.60
2022-10-21T06:32:39.731Z,21.33
2022-10-21T06:35:08.963Z,18.00
2022-10-21T06:37:36.812Z,21.37
2022-10-21T06:40:05.474Z,18.97
2022-10-21T06:42:33.023Z,22.20
2022-10-21T06:45:10.317Z,19.77
2022-10-21T06:47:38.163Z,19.10
2022-10-21T06:50:08.312Z,18.63
2022-10-21T06:52:35.867Z,17.90
2022-10-21T06:55:03.354Z,18.07
2022-10-21T06:57:30.843Z,16.00
2022-10-21T06:59:58.342Z,23.10
2022-10-21T07:02:25.907Z,21.87
2022-10-21T07:04:53.459Z,18.73
2022-10-21T07:07:22.280Z,20.23
2022-10-21T07:09:49.839Z,27.57
2022-10-21T07:12:17.456Z,30.00
2022-10-21T07:14:44.939Z,31.83
2022-10-21T07:17:12.426Z,17.10
2022-10-21T07:19:39.908Z,18.03
2022-10-21T07:22:07.389Z,15.57
2022-10-21T07:24:36.539Z,17.07
2022-10-21T07:27:04.113Z,16.30
2022-10-21T07:29:31.631Z,14.80
2022-10-21T07:31:59.188Z,11.63
2022-10-21T07:34:26.907Z,12.23
2022-10-21T07:36:54.759Z,13.13
2022-10-21T07:39:24.530Z,11.57
2022-10-21T07:41:55.241Z,15.00
2022-10-21T07:44:25.048Z,15.70
2022-10-21T07:46:53.087Z,11.43
2022-10-21T07:49:21.398Z,11.80
2022-10-21T07:51:50.114Z,11.93
2022-10-21T07:54:18.632Z,13.13
2022-10-21T07:56:47.575Z,11.23
2022-10-21T07:59:17.621Z,11.20
2022-10-21T08:01:47.321Z,11.50
2022-10-21T08:04:16.980Z,11.60
2022-10-21T08:06:45.083Z,13.40
2022-10-21T08:09:12.611Z,11.60
2022-10-21T08:11:40.232Z,12.67
2022-10-21T08:14:08.694Z,11.40
2022-10-21T08:16:38.115Z,10.60
2022-10-21T08:19:07.345Z,14.40
2022-10-21T08:21:35.291Z,13.30
2022-10-21T08:24:04.093Z,11.63
2022-10-21T08:26:31.616Z,15.47
2022-10-21T08:31:31.707Z,14.03
2022-10-21T08:34:00.945Z,12.20
2022-10-21T08:36:28.413Z,13.03
2022-10-21T08:38:56.292Z,14.10
2022-10-21T08:41:35.940Z,12.30
2022-10-21T08:44:06.601Z,16.43
2022-10-21T08:46:37.022Z,13.30
2022-10-21T08:49:10.447Z,13.33
2022-10-21T08:51:40.512Z,14.83
2022-10-21T08:54:13.524Z,14.10
2022-10-21T08:56:41.121Z,14.30
2022-10-21T08:59:11.543Z,14.83
2022-10-21T09:01:44.095Z,12.67
2022-10-21T09:04:17.011Z,12.40
2022-10-21T09:06:50.437Z,13.13
2022-10-21T09:09:21.914Z,12.80
2022-10-21T09:12:00.035Z,10.80
2022-10-21T09:14:50.470Z,14.00
2022-10-21T09:17:36.524Z,10.27
2022-10-21T09:20:14.445Z,16.77
2022-10-21T09:22:49.343Z,12.70
2022-10-21T09:25:22.535Z,11.97
2022-10-21T09:27:56.102Z,11.83
2022-10-21T09:30:24.668Z,11.90
2022-10-21T09:32:57.785Z,13.73
2022-10-21T09:35:31.930Z,13.07
2022-10-21T09:38:02.193Z,12.93
2022-10-21T09:40:31.822Z,13.80
2022-10-21T09:43:01.377Z,13.37
2022-10-21T09:45:33.259Z,12.50
2022-10-21T09:48:02.455Z,10.07
2022-10-21T09:53:08.653Z,19.33
2022-10-21T09:55:36.378Z,19.07
2022-10-21T09:58:05.173Z,12.87
2022-10-21T10:00:42.781Z,11.67
2022-10-21T10:03:10.705Z,17.10
2022-10-21T10:05:43.841Z,9.27
2022-10-21T10:08:22.429Z,11.33
2022-10-21T10:10:50.049Z,9.20
2022-10-21T10:13:19.604Z,10.70
2022-10-21T10:15:47.301Z,11.27
2022-10-21T10:18:21.759Z,11.00
2022-10-21T10:21:05.195Z,10.00
2022-10-21T10:23:43.983Z,9.10
2022-10-21T10:26:11.935Z,7.60
2022-10-21T10:31:11.988Z,7.27
2022-10-21T10:33:39.568Z,6.90
2022-10-21T10:36:09.755Z,8.10
2022-10-21T10:38:39.605Z,5.53
2022-10-21T10:41:08.751Z,5.10
2022-10-21T10:43:38.006Z,5.53
2022-10-21T10:46:09.595Z,7.53
2022-10-21T10:48:39.708Z,6.40
2022-10-21T10:51:25.092Z,4.50
2022-10-21T10:54:01.618Z,7.00
2022-10-21T10:56:30.553Z,5.67
2022-10-21T10:59:05.461Z,6.77
2022-10-21T11:01:36.695Z,4.93
2022-10-21T11:04:11.919Z,5.97
2022-10-21T11:06:43.572Z,5.27
2022-10-21T11:09:11.287Z,5.40
2022-10-21T11:11:41.658Z,5.10
2022-10-21T11:14:15.388Z,5.10
2022-10-21T11:17:00.481Z,4.70
2022-10-21T11:19:31.394Z,3.87
2022-10-21T11:22:09.601Z,4.37
2022-10-21T11:24:55.303Z,5.37
2022-10-21T11:27:29.399Z,4.53
2022-10-21T11:30:05.550Z,8.23
2022-10-21T11:32:42.576Z,4.90
2022-10-21T11:35:18.857Z,4.17
2022-10-21T11:37:54.552Z,6.07
2022-10-21T11:40:30.060Z,5.63
2022-10-21T11:42:58.254Z,6.57
2022-10-21T11:45:41.813Z,6.73
2022-10-21T11:48:18.151Z,4.20
2022-10-21T11:50:49.939Z,4.33
2022-10-21T11:53:31.879Z,4.73
2022-10-21T11:56:05.383Z,5.40
2022-10-21T11:58:41.729Z,4.50
2022-10-21T12:01:23.688Z,5.87
2022-10-21T12:04:08.544Z,6.77
2022-10-21T12:06:39.047Z,5.10
2022-10-21T12:09:12.919Z,4.37
2022-10-21T12:11:43.714Z,4.23
2022-10-21T12:14:30.166Z,6.27
2022-10-21T12:17:02.371Z,3.97
2022-10-21T12:19:29.975Z,5.47
2022-10-21T12:21:57.734Z,7.20
2022-10-21T12:24:41.578Z,6.40
2022-10-21T12:27:15.425Z,4.30
2022-10-21T12:29:51.357Z,5.70
2022-10-21T12:32:24.449Z,4.63
2022-10-21T12:34:52.021Z,3.33
2022-10-21T12:38:00.615Z,2.63
2022-10-21T12:40:41.799Z,3.90
2022-10-21T12:43:20.566Z,3.90
2022-10-21T12:45:49.113Z,7.80
2022-10-21T12:48:32.628Z,2.70
2022-10-21T12:51:01.997Z,2.73
2022-10-21T12:53:36.643Z,3.63
2022-10-21T12:56:07.168Z,3.10
2022-10-21T12:58:38.823Z,3.40
2022-10-21T13:01:07.479Z,6.33
2022-10-21T13:03:52.928Z,2.97
2022-10-21T13:06:52.156Z,3.93
2022-10-21T13:09:38.778Z,3.30
2022-10-21T13:12:28.052Z,5.70
2022-10-21T13:14:56.668Z,2.20
2022-10-21T13:17:33.096Z,1.90
2022-10-21T13:20:38.386Z,3.10
2022-10-21T13:23:32.290Z,1.57
2022-10-21T13:26:12.178Z,2.30
2022-10-21T13:28:41.180Z,2.83
2022-10-21T13:31:08.856Z,1.43
2022-10-21T13:33:38.092Z,3.47
2022-10-21T13:36:12.604Z,2.37
2022-10-21T13:38:48.800Z,3.30
2022-10-21T13:41:22.482Z,1.30
2022-10-21T13:43:54.528Z,1.43
2022-10-21T13:46:26.554Z,3.50
2022-10-21T13:48:54.133Z,2.77
2022-10-21T13:51:23.690Z,1.20
2022-10-21T13:53:54.896Z,1.80
2022-10-21T13:56:23.925Z,1.90
2022-10-21T13:58:53.064Z,3.37
2022-10-21T14:01:22.140Z,4.03
2022-10-21T14:03:50.123Z,1.80
2022-10-21T14:06:22.945Z,2.00
2022-10-21T14:08:51.132Z,1.60
2022-10-21T14:11:21.917Z,3.93
2022-10-21T14:13:50.594Z,2.40
2022-10-21T14:16:26.668Z,1.40
2022-10-21T14:18:54.585Z,2.10
2022-10-21T14:21:25.379Z,5.47
2022-10-21T14:23:53.453Z,2.50
2022-10-21T14:26:21.177Z,3.67
2022-10-21T14:28:50.412Z,3.20
2022-10-21T14:31:18.796Z,6.17
2022-10-21T14:33:49.547Z,2.03
2022-10-21T14:36:19.682Z,1.87
2022-10-21T14:38:54.478Z,1.63
2022-10-21T14:41:24.907Z,9.03
2022-10-21T14:43:52.885Z,4.03
2022-10-21T14:46:20.436Z,8.83
2022-10-21T14:48:52.944Z,3.77
2022-10-21T14:51:22.538Z,3.70
2022-10-21T14:53:55.828Z,1.70
2022-10-21T14:56:26.802Z,3.47
2022-10-21T14:58:56.607Z,2.97
2022-10-21T15:01:24.462Z,4.80
2022-10-21T15:03:54.872Z,8.27
2022-10-21T15:06:24.639Z,4.53
2022-10-21T15:09:05.866Z,5.10
2022-10-21T15:11:37.270Z,8.80
2022-10-21T15:14:20.556Z,4.57
2022-10-21T15:16:50.667Z,3.40
2022-10-21T15:19:21.618Z,3.53
2022-10-21T15:21:52.034Z,4.60
2022-10-21T15:24:22.482Z,3.00
2022-10-21T15:26:52.173Z,5.63
2022-10-21T15:29:25.936Z,2.80
2022-10-21T15:31:53.930Z,3.67
2022-10-21T15:34:22.790Z,3.20
2022-10-21T15:36:50.650Z,4.43
2022-10-21T15:39:18.332Z,6.03
2022-10-21T15:41:46.340Z,6.73
2022-10-21T15:44:19.858Z,4.93
2022-10-21T15:46:49.727Z,3.47
2022-10-21T15:49:19.972Z,5.23
2022-10-21T15:51:49.577Z,8.90
2022-10-21T15:54:18.204Z,3.00
2022-10-21T15:56:47.315Z,3.70
2022-10-21T15:59:18.853Z,3.27
2022-10-21T16:01:46.761Z,2.43
2022-10-21T16:04:14.236Z,3.43
2022-10-21T16:06:45.818Z,4.67
2022-10-21T16:09:20.641Z,4.37
2022-10-21T16:11:58.850Z,4.60
2022-10-21T16:14:29.539Z,2.73
2022-10-21T16:16:58.883Z,5.73
2022-10-21T16:19:26.664Z,4.47
2022-10-21T16:21:54.612Z,7.50
2022-10-21T16:24:23.845Z,4.63
2022-10-21T16:26:51.441Z,6.87
2022-10-21T16:29:20.585Z,4.07
2022-10-21T16:31:48.553Z,3.63
2022-10-21T16:34:16.391Z,4.10
2022-10-21T16:36:44.057Z,3.07
2022-10-21T16:39:15.175Z,3.67
2022-10-21T16:41:44.128Z,4.60
2022-10-21T16:44:11.743Z,3.97
2022-10-21T16:46:40.933Z,13.10
2022-10-21T16:49:13.765Z,12.47
2022-10-21T16:51:41.913Z,4.80
2022-10-21T16:54:09.607Z,5.93
2022-10-21T16:56:37.125Z,5.53
2022-10-21T16:59:06.119Z,4.30
2022-10-21T17:01:33.811Z,10.27
2022-10-21T17:04:01.582Z,5.13
2022-10-21T17:06:29.167Z,3.87
2022-10-21T17:08:57.502Z,9.50
2022-10-21T17:11:27.047Z,4.87
2022-10-21T17:13:54.715Z,7.10
2022-10-21T17:16:23.715Z,7.60
2022-10-21T17:18:51.413Z,5.53
2022-10-21T17:21:22.074Z,3.40
2022-10-21T17:23:49.963Z,5.97
2022-10-21T17:26:18.739Z,5.90
2022-10-21T17:28:46.388Z,3.47
2022-10-21T17:31:16.196Z,4.00
2022-10-21T17:33:45.905Z,5.00
2022-10-21T17:36:15.030Z,6.97
2022-10-21T17:38:42.947Z,3.60
2022-10-21T17:41:10.922Z,5.30
2022-10-21T17:43:38.730Z,5.40
2022-10-21T17:46:06.699Z,4.87
2022-10-21T17:48:34.605Z,4.40
2022-10-21T17:51:03.588Z,5.23
2022-10-21T17:53:31.475Z,4.27
2022-10-21T17:56:00.177Z,7.83
2022-10-21T17:58:28.462Z,5.07
2022-10-21T18:00:57.419Z,3.40
2022-10-21T18:03:25.914Z,3.07
2022-10-21T18:05:53.758Z,4.30
2022-10-21T18:08:23.345Z,4.20
2022-10-21T18:10:55.508Z,5.87
2022-10-21T18:13:23.464Z,7.70
2022-10-21T18:15:51.573Z,4.23
2022-10-21T18:18:19.341Z,2.57
2022-10-21T18:20:47.136Z,4.10
2022-10-21T18:23:15.893Z,4.60
2022-10-21T18:25:44.931Z,4.83
2022-10-21T18:28:12.517Z,4.60
2022-10-21T18:30:42.457Z,10.63
2022-10-21T18:33:10.460Z,5.13
2022-10-21T18:35:38.370Z,4.43
2022-10-21T18:38:05.945Z,4.90
2022-10-21T18:40:33.495Z,3.80
2022-10-21T18:43:02.475Z,4.60
2022-10-21T18:45:30.148Z,5.13
2022-10-21T18:47:57.773Z,3.00
2022-10-21T18:50:25.448Z,4.33
2022-10-21T18:52:53.018Z,4.27
2022-10-21T18:55:20.679Z,3.67
2022-10-21T18:57:48.478Z,5.53
2022-10-21T19:00:17.559Z,4.10
2022-10-21T19:02:45.162Z,7.43
2022-10-21T19:05:12.736Z,4.70
2022-10-21T19:07:40.659Z,3.30
2022-10-21T19:10:08.693Z,5.80
2022-10-21T19:12:36.283Z,2.97
2022-10-21T19:15:08.071Z,5.23
2022-10-21T19:17:37.833Z,6.87
2022-10-21T19:20:07.002Z,3.40
2022-10-21T19:22:34.575Z,5.07
2022-10-21T19:25:02.192Z,3.00
2022-10-21T19:27:29.711Z,6.80
2022-10-21T19:29:57.313Z,4.93
2022-10-21T19:32:24.885Z,2.83
2022-10-21T19:34:53.861Z,4.27
2022-10-21T19:37:21.548Z,4.90
2022-10-21T19:39:49.170Z,5.43
2022-10-21T19:42:16.906Z,6.00
2022-10-21T19:44:44.503Z,3.07
2022-10-21T19:47:12.111Z,4.70
2022-10-21T19:49:39.894Z,4.50
2022-10-21T19:52:08.760Z,4.53
2022-10-21T19:54:36.492Z,4.40
2022-10-21T19:57:04.308Z,8.27
2022-10-21T19:59:31.931Z,11.03
2022-10-21T20:01:59.541Z,13.80
2022-10-21T20:04:27.261Z,6.40
2022-10-21T20:06:54.948Z,6.87
2022-10-21T20:09:23.894Z,5.63
2022-10-21T20:11:51.529Z,5.63
2022-10-21T20:14:19.297Z,5.80
2022-10-21T20:16:49.331Z,5.70
2022-10-21T20:19:16.964Z,5.90
2022-10-21T20:21:44.833Z,2.97
2022-10-21T20:24:15.149Z,3.60
2022-10-21T20:26:45.523Z,6.30
2022-10-21T20:29:15.392Z,5.97
2022-10-21T20:31:43.050Z,4.30
2022-10-21T20:34:12.408Z,7.40
2022-10-21T20:36:40.060Z,5.33
2022-10-21T20:39:07.673Z,5.73
2022-10-21T20:41:37.315Z,6.83
2022-10-21T20:44:08.190Z,2.93
2022-10-21T20:46:36.205Z,5.17
2022-10-21T20:49:05.044Z,5.23
2022-10-21T20:51:32.685Z,7.00
2022-10-21T20:54:02.267Z,5.80
2022-10-21T20:56:31.237Z,10.43
2022-10-21T20:58:59.423Z,5.17
2022-10-21T21:01:30.894Z,4.87
2022-10-21T21:03:59.768Z,5.77
2022-10-21T21:06:28.049Z,5.80
2022-10-21T21:09:29.050Z,4.67
2022-10-21T21:11:43.469Z,6.43
2022-10-21T21:14:11.202Z,5.80
2022-10-21T21:16:40.163Z,6.87
2022-10-21T21:19:08.694Z,4.10
2022-10-21T21:21:37.510Z,3.83
2022-10-21T21:24:05.517Z,9.50
2022-10-21T21:26:34.535Z,3.70
2022-10-21T21:29:06.021Z,2.90
2022-10-21T21:31:34.297Z,6.20
2022-10-21T21:34:03.255Z,4.07
2022-10-21T21:36:30.819Z,4.57
2022-10-21T21:38:58.346Z,4.07
2022-10-21T21:41:26.718Z,4.70
2022-10-21T21:43:56.548Z,6.73
2022-10-21T21:46:24.556Z,5.83
2022-10-21T21:48:55.311Z,5.13
2022-10-21T21:51:25.784Z,5.27
2022-10-21T21:53:53.400Z,6.33
2022-10-21T21:56:21.296Z,3.80
2022-10-21T21:58:49.099Z,8.30
2022-10-21T22:01:18.529Z,6.33
2022-10-21T22:03:46.965Z,4.30
2022-10-21T22:06:14.821Z,3.10
2022-10-21T22:08:43.747Z,5.00
2022-10-21T22:11:13.420Z,4.00
2022-10-21T22:13:42.019Z,3.40
2022-10-21T22:16:12.078Z,7.40
2022-10-21T22:18:39.816Z,3.60
2022-10-21T22:21:09.660Z,3.60
2022-10-21T22:23:38.199Z,3.00
2022-10-21T22:26:07.616Z,2.03
2022-10-21T22:28:35.442Z,3.27
2022-10-21T22:31:05.159Z,8.47
2022-10-21T22:33:32.942Z,3.00
2022-10-21T22:36:00.844Z,2.63
2022-10-21T22:38:29.346Z,4.17
2022-10-21T22:40:58.662Z,3.87
2022-10-21T22:43:28.274Z,5.73
2022-10-21T22:46:05.114Z,2.80
2022-10-21T22:48:43.716Z,2.60
2022-10-21T22:51:11.313Z,2.53
2022-10-21T22:53:38.869Z,3.30
2022-10-21T22:56:06.574Z,3.50
2022-10-21T22:58:35.462Z,5.20
2022-10-21T23:01:06.921Z,3.27
2022-10-21T23:03:34.521Z,1.97
2022-10-21T23:06:02.043Z,5.00
2022-10-21T23:08:29.939Z,3.53
2022-10-21T23:10:58.697Z,6.10
2022-10-21T23:13:26.293Z,3.80
2022-10-21T23:15:55.241Z,2.50
2022-10-21T23:18:22.916Z,4.83
2022-10-21T23:20:50.566Z,2.93
2022-10-21T23:23:18.116Z,4.07
2022-10-21T23:25:45.677Z,3.33
2022-10-21T23:28:13.282Z,3.53
2022-10-21T23:30:40.999Z,2.53
2022-10-21T23:33:10.071Z,4.50
2022-10-21T23:35:37.759Z,3.30
2022-10-21T23:38:05.318Z,3.53
2022-10-21T23:40:33.059Z,4.13
2022-10-21T23:43:00.690Z,3.40
2022-10-21T23:45:28.388Z,2.83
2022-10-21T23:47:56.022Z,5.80
2022-10-21T23:50:24.987Z,6.57
2022-10-21T23:52:52.501Z,11.57
2022-10-21T23:55:20.067Z,4.87
2022-10-21T23:57:47.637Z,4.50
